<?xml version="1.0" encoding="UTF-8" standalone="no" ?>
<gpx xmlns="http://www.topografix.com/GPX/1/1" xmlns:xsi="http://www.w3.org/2001/XMLSchema-instance" xsi:schemaLocation="http://www.topografix.com/GPX/1/1 http://www.topografix.com/GPX/1/1/gpx.xsd" version="1.1" creator="VisuGPX - https://www.visugpx.com">
  <metadata>
    <name>Canche Merciers - Mont Aigu - Hurlevent</name>
    <desc><![CDATA[40 kms technico-ludiques]]></desc>
  </metadata>
  <trk>
    <name><![CDATA[boucle rocher sablon]]></name>
    <trkseg>
      <trkpt lat="48.40641" lon="2.59328">
        <ele>123</ele>
        <time>2012-02-08T14:16:08Z</time>
      </trkpt>
      <trkpt lat="48.40664" lon="2.59342">
        <ele>124</ele>
        <time>2012-02-08T14:16:16Z</time>
      </trkpt>
      <trkpt lat="48.40674" lon="2.5934">
        <ele>123</ele>
        <time>2012-02-08T14:16:20Z</time>
      </trkpt>
      <trkpt lat="48.40675" lon="2.59353">
        <ele>121</ele>
        <time>2012-02-08T14:16:27Z</time>
      </trkpt>
      <trkpt lat="48.40678" lon="2.59361">
        <ele>120</ele>
        <time>2012-02-08T14:16:29Z</time>
      </trkpt>
      <trkpt lat="48.40687" lon="2.59378">
        <ele>119</ele>
        <time>2012-02-08T14:16:32Z</time>
      </trkpt>
      <trkpt lat="48.40706" lon="2.59376">
        <ele>118</ele>
        <time>2012-02-08T14:16:37Z</time>
      </trkpt>
      <trkpt lat="48.40743" lon="2.5937">
        <ele>116</ele>
        <time>2012-02-08T14:16:44Z</time>
      </trkpt>
      <trkpt lat="48.40752" lon="2.59376">
        <ele>109</ele>
        <time>2012-02-08T14:16:48Z</time>
      </trkpt>
      <trkpt lat="48.40754" lon="2.59383">
        <ele>109</ele>
        <time>2012-02-08T14:16:52Z</time>
      </trkpt>
      <trkpt lat="48.40759" lon="2.59392">
        <ele>110</ele>
        <time>2012-02-08T14:17:02Z</time>
      </trkpt>
      <trkpt lat="48.40759" lon="2.59393">
        <ele>110</ele>
        <time>2012-02-08T14:17:03Z</time>
      </trkpt>
      <trkpt lat="48.40765" lon="2.59415">
        <ele>110</ele>
        <time>2012-02-08T14:17:18Z</time>
      </trkpt>
      <trkpt lat="48.40766" lon="2.59421">
        <ele>111</ele>
        <time>2012-02-08T14:17:21Z</time>
      </trkpt>
      <trkpt lat="48.40766" lon="2.5943">
        <ele>111</ele>
        <time>2012-02-08T14:17:25Z</time>
      </trkpt>
      <trkpt lat="48.40768" lon="2.59436">
        <ele>111</ele>
        <time>2012-02-08T14:17:27Z</time>
      </trkpt>
      <trkpt lat="48.40786" lon="2.59441">
        <ele>110</ele>
        <time>2012-02-08T14:17:35Z</time>
      </trkpt>
      <trkpt lat="48.40798" lon="2.59444">
        <ele>109</ele>
        <time>2012-02-08T14:17:40Z</time>
      </trkpt>
      <trkpt lat="48.40823" lon="2.59448">
        <ele>107</ele>
        <time>2012-02-08T14:17:48Z</time>
      </trkpt>
      <trkpt lat="48.40823" lon="2.59448">
        <ele>107</ele>
        <time>2012-02-08T14:17:50Z</time>
      </trkpt>
      <trkpt lat="48.40827" lon="2.59441">
        <ele>107</ele>
        <time>2012-02-08T14:17:55Z</time>
      </trkpt>
      <trkpt lat="48.4083" lon="2.59392">
        <ele>106</ele>
        <time>2012-02-08T14:18:12Z</time>
      </trkpt>
      <trkpt lat="48.40834" lon="2.59379">
        <ele>99</ele>
        <time>2012-02-08T14:18:17Z</time>
      </trkpt>
      <trkpt lat="48.40834" lon="2.59346">
        <ele>100</ele>
        <time>2012-02-08T14:18:25Z</time>
      </trkpt>
      <trkpt lat="48.4084" lon="2.59324">
        <ele>100</ele>
        <time>2012-02-08T14:18:30Z</time>
      </trkpt>
      <trkpt lat="48.4085" lon="2.59295">
        <ele>98</ele>
        <time>2012-02-08T14:18:35Z</time>
      </trkpt>
      <trkpt lat="48.40858" lon="2.59271">
        <ele>98</ele>
        <time>2012-02-08T14:18:40Z</time>
      </trkpt>
      <trkpt lat="48.40879" lon="2.59252">
        <ele>96</ele>
        <time>2012-02-08T14:18:48Z</time>
      </trkpt>
      <trkpt lat="48.40895" lon="2.59238">
        <ele>96</ele>
        <time>2012-02-08T14:18:53Z</time>
      </trkpt>
      <trkpt lat="48.40913" lon="2.59231">
        <ele>95</ele>
        <time>2012-02-08T14:18:57Z</time>
      </trkpt>
      <trkpt lat="48.40922" lon="2.5923">
        <ele>90</ele>
        <time>2012-02-08T14:18:59Z</time>
      </trkpt>
      <trkpt lat="48.4094" lon="2.59222">
        <ele>89</ele>
        <time>2012-02-08T14:19:03Z</time>
      </trkpt>
      <trkpt lat="48.40955" lon="2.59211">
        <ele>88</ele>
        <time>2012-02-08T14:19:08Z</time>
      </trkpt>
      <trkpt lat="48.40978" lon="2.592">
        <ele>88</ele>
        <time>2012-02-08T14:19:15Z</time>
      </trkpt>
      <trkpt lat="48.40982" lon="2.59185">
        <ele>87</ele>
        <time>2012-02-08T14:19:19Z</time>
      </trkpt>
      <trkpt lat="48.40975" lon="2.59171">
        <ele>88</ele>
        <time>2012-02-08T14:19:25Z</time>
      </trkpt>
      <trkpt lat="48.40953" lon="2.59131">
        <ele>89</ele>
        <time>2012-02-08T14:19:39Z</time>
      </trkpt>
      <trkpt lat="48.40939" lon="2.59115">
        <ele>89</ele>
        <time>2012-02-08T14:19:45Z</time>
      </trkpt>
      <trkpt lat="48.40933" lon="2.59111">
        <ele>90</ele>
        <time>2012-02-08T14:19:47Z</time>
      </trkpt>
      <trkpt lat="48.40926" lon="2.59101">
        <ele>90</ele>
        <time>2012-02-08T14:19:51Z</time>
      </trkpt>
      <trkpt lat="48.40904" lon="2.59083">
        <ele>96</ele>
        <time>2012-02-08T14:20:03Z</time>
      </trkpt>
      <trkpt lat="48.40903" lon="2.59082">
        <ele>96</ele>
        <time>2012-02-08T14:20:04Z</time>
      </trkpt>
      <trkpt lat="48.40901" lon="2.5907">
        <ele>98</ele>
        <time>2012-02-08T14:20:10Z</time>
      </trkpt>
      <trkpt lat="48.40894" lon="2.5906">
        <ele>100</ele>
        <time>2012-02-08T14:20:16Z</time>
      </trkpt>
      <trkpt lat="48.40891" lon="2.5906">
        <ele>100</ele>
        <time>2012-02-08T14:20:18Z</time>
      </trkpt>
      <trkpt lat="48.40882" lon="2.59041">
        <ele>102</ele>
        <time>2012-02-08T14:20:28Z</time>
      </trkpt>
      <trkpt lat="48.40873" lon="2.59037">
        <ele>103</ele>
        <time>2012-02-08T14:20:34Z</time>
      </trkpt>
      <trkpt lat="48.40867" lon="2.5903">
        <ele>103</ele>
        <time>2012-02-08T14:20:40Z</time>
      </trkpt>
      <trkpt lat="48.40857" lon="2.59028">
        <ele>105</ele>
        <time>2012-02-08T14:20:49Z</time>
      </trkpt>
      <trkpt lat="48.40854" lon="2.5903">
        <ele>105</ele>
        <time>2012-02-08T14:20:51Z</time>
      </trkpt>
      <trkpt lat="48.40852" lon="2.59033">
        <ele>105</ele>
        <time>2012-02-08T14:20:53Z</time>
      </trkpt>
      <trkpt lat="48.40849" lon="2.59042">
        <ele>105</ele>
        <time>2012-02-08T14:21:01Z</time>
      </trkpt>
      <trkpt lat="48.40847" lon="2.59045">
        <ele>105</ele>
        <time>2012-02-08T14:21:15Z</time>
      </trkpt>
      <trkpt lat="48.40843" lon="2.59038">
        <ele>105</ele>
        <time>2012-02-08T14:21:30Z</time>
      </trkpt>
      <trkpt lat="48.40841" lon="2.59034">
        <ele>106</ele>
        <time>2012-02-08T14:21:42Z</time>
      </trkpt>
      <trkpt lat="48.40834" lon="2.59036">
        <ele>106</ele>
        <time>2012-02-08T14:21:55Z</time>
      </trkpt>
      <trkpt lat="48.40832" lon="2.59033">
        <ele>115</ele>
        <time>2012-02-08T14:22:08Z</time>
      </trkpt>
      <trkpt lat="48.40833" lon="2.59032">
        <ele>115</ele>
        <time>2012-02-08T14:22:13Z</time>
      </trkpt>
      <trkpt lat="48.40838" lon="2.59011">
        <ele>110</ele>
        <time>2012-02-08T14:22:24Z</time>
      </trkpt>
      <trkpt lat="48.40842" lon="2.59003">
        <ele>110</ele>
        <time>2012-02-08T14:22:28Z</time>
      </trkpt>
      <trkpt lat="48.40852" lon="2.58975">
        <ele>108</ele>
        <time>2012-02-08T14:22:39Z</time>
      </trkpt>
      <trkpt lat="48.40854" lon="2.58944">
        <ele>108</ele>
        <time>2012-02-08T14:22:51Z</time>
      </trkpt>
      <trkpt lat="48.40854" lon="2.58941">
        <ele>108</ele>
        <time>2012-02-08T14:22:52Z</time>
      </trkpt>
      <trkpt lat="48.40854" lon="2.58933">
        <ele>109</ele>
        <time>2012-02-08T14:22:55Z</time>
      </trkpt>
      <trkpt lat="48.40868" lon="2.58908">
        <ele>108</ele>
        <time>2012-02-08T14:23:06Z</time>
      </trkpt>
      <trkpt lat="48.40879" lon="2.58877">
        <ele>106</ele>
        <time>2012-02-08T14:23:16Z</time>
      </trkpt>
      <trkpt lat="48.40879" lon="2.5887">
        <ele>106</ele>
        <time>2012-02-08T14:23:27Z</time>
      </trkpt>
      <trkpt lat="48.40881" lon="2.58861">
        <ele>106</ele>
        <time>2012-02-08T14:23:39Z</time>
      </trkpt>
      <trkpt lat="48.40874" lon="2.58832">
        <ele>107</ele>
        <time>2012-02-08T14:23:51Z</time>
      </trkpt>
      <trkpt lat="48.40868" lon="2.58818">
        <ele>108</ele>
        <time>2012-02-08T14:23:57Z</time>
      </trkpt>
      <trkpt lat="48.40876" lon="2.58787">
        <ele>107</ele>
        <time>2012-02-08T14:24:06Z</time>
      </trkpt>
      <trkpt lat="48.40886" lon="2.58769">
        <ele>106</ele>
        <time>2012-02-08T14:24:14Z</time>
      </trkpt>
      <trkpt lat="48.40898" lon="2.58738">
        <ele>104</ele>
        <time>2012-02-08T14:24:25Z</time>
      </trkpt>
      <trkpt lat="48.40902" lon="2.58725">
        <ele>104</ele>
        <time>2012-02-08T14:24:31Z</time>
      </trkpt>
      <trkpt lat="48.40905" lon="2.58717">
        <ele>104</ele>
        <time>2012-02-08T14:24:35Z</time>
      </trkpt>
      <trkpt lat="48.40905" lon="2.58709">
        <ele>104</ele>
        <time>2012-02-08T14:24:51Z</time>
      </trkpt>
      <trkpt lat="48.40906" lon="2.58709">
        <ele>104</ele>
        <time>2012-02-08T14:25:03Z</time>
      </trkpt>
      <trkpt lat="48.40913" lon="2.58708">
        <ele>103</ele>
        <time>2012-02-08T14:25:07Z</time>
      </trkpt>
      <trkpt lat="48.40919" lon="2.58702">
        <ele>98</ele>
        <time>2012-02-08T14:25:11Z</time>
      </trkpt>
      <trkpt lat="48.40926" lon="2.58694">
        <ele>98</ele>
        <time>2012-02-08T14:25:17Z</time>
      </trkpt>
      <trkpt lat="48.40933" lon="2.58689">
        <ele>97</ele>
        <time>2012-02-08T14:25:26Z</time>
      </trkpt>
      <trkpt lat="48.40942" lon="2.58687">
        <ele>97</ele>
        <time>2012-02-08T14:25:30Z</time>
      </trkpt>
      <trkpt lat="48.40962" lon="2.58686">
        <ele>95</ele>
        <time>2012-02-08T14:25:42Z</time>
      </trkpt>
      <trkpt lat="48.40964" lon="2.58679">
        <ele>95</ele>
        <time>2012-02-08T14:25:53Z</time>
      </trkpt>
      <trkpt lat="48.40962" lon="2.58672">
        <ele>95</ele>
        <time>2012-02-08T14:25:58Z</time>
      </trkpt>
      <trkpt lat="48.40963" lon="2.58669">
        <ele>95</ele>
        <time>2012-02-08T14:26:03Z</time>
      </trkpt>
      <trkpt lat="48.4096" lon="2.58653">
        <ele>94</ele>
        <time>2012-02-08T14:26:21Z</time>
      </trkpt>
      <trkpt lat="48.40959" lon="2.58652">
        <ele>95</ele>
        <time>2012-02-08T14:26:23Z</time>
      </trkpt>
      <trkpt lat="48.40955" lon="2.58647">
        <ele>95</ele>
        <time>2012-02-08T14:26:36Z</time>
      </trkpt>
      <trkpt lat="48.40951" lon="2.58638">
        <ele>95</ele>
        <time>2012-02-08T14:26:54Z</time>
      </trkpt>
      <trkpt lat="48.40951" lon="2.58636">
        <ele>95</ele>
        <time>2012-02-08T14:26:57Z</time>
      </trkpt>
      <trkpt lat="48.40949" lon="2.58628">
        <ele>95</ele>
        <time>2012-02-08T14:27:08Z</time>
      </trkpt>
      <trkpt lat="48.40944" lon="2.58622">
        <ele>95</ele>
        <time>2012-02-08T14:27:12Z</time>
      </trkpt>
      <trkpt lat="48.40943" lon="2.58617">
        <ele>95</ele>
        <time>2012-02-08T14:27:15Z</time>
      </trkpt>
      <trkpt lat="48.40944" lon="2.58613">
        <ele>95</ele>
        <time>2012-02-08T14:27:18Z</time>
      </trkpt>
      <trkpt lat="48.40944" lon="2.58604">
        <ele>95</ele>
        <time>2012-02-08T14:27:22Z</time>
      </trkpt>
      <trkpt lat="48.40947" lon="2.58582">
        <ele>93</ele>
        <time>2012-02-08T14:27:29Z</time>
      </trkpt>
      <trkpt lat="48.40948" lon="2.58568">
        <ele>93</ele>
        <time>2012-02-08T14:27:36Z</time>
      </trkpt>
      <trkpt lat="48.40945" lon="2.58561">
        <ele>93</ele>
        <time>2012-02-08T14:27:52Z</time>
      </trkpt>
      <trkpt lat="48.40944" lon="2.58558">
        <ele>93</ele>
        <time>2012-02-08T14:28:02Z</time>
      </trkpt>
      <trkpt lat="48.40943" lon="2.58551">
        <ele>93</ele>
        <time>2012-02-08T14:28:14Z</time>
      </trkpt>
      <trkpt lat="48.40941" lon="2.58552">
        <ele>93</ele>
        <time>2012-02-08T14:28:21Z</time>
      </trkpt>
      <trkpt lat="48.40939" lon="2.58551">
        <ele>93</ele>
        <time>2012-02-08T14:28:30Z</time>
      </trkpt>
      <trkpt lat="48.40931" lon="2.58553">
        <ele>93</ele>
        <time>2012-02-08T14:28:46Z</time>
      </trkpt>
      <trkpt lat="48.40933" lon="2.58547">
        <ele>93</ele>
        <time>2012-02-08T14:28:52Z</time>
      </trkpt>
      <trkpt lat="48.40932" lon="2.58536">
        <ele>93</ele>
        <time>2012-02-08T14:29:00Z</time>
      </trkpt>
      <trkpt lat="48.4093" lon="2.5853">
        <ele>93</ele>
        <time>2012-02-08T14:29:12Z</time>
      </trkpt>
      <trkpt lat="48.4093" lon="2.58523">
        <ele>94</ele>
        <time>2012-02-08T14:29:23Z</time>
      </trkpt>
      <trkpt lat="48.40927" lon="2.58516">
        <ele>94</ele>
        <time>2012-02-08T14:29:34Z</time>
      </trkpt>
      <trkpt lat="48.40917" lon="2.58514">
        <ele>95</ele>
        <time>2012-02-08T14:29:47Z</time>
      </trkpt>
      <trkpt lat="48.40908" lon="2.58515">
        <ele>97</ele>
        <time>2012-02-08T14:29:53Z</time>
      </trkpt>
      <trkpt lat="48.40904" lon="2.58519">
        <ele>97</ele>
        <time>2012-02-08T14:29:56Z</time>
      </trkpt>
      <trkpt lat="48.40902" lon="2.5853">
        <ele>97</ele>
        <time>2012-02-08T14:30:00Z</time>
      </trkpt>
      <trkpt lat="48.40899" lon="2.58534">
        <ele>97</ele>
        <time>2012-02-08T14:30:09Z</time>
      </trkpt>
      <trkpt lat="48.40872" lon="2.58539">
        <ele>97</ele>
        <time>2012-02-08T14:30:24Z</time>
      </trkpt>
      <trkpt lat="48.40853" lon="2.58557">
        <ele>97</ele>
        <time>2012-02-08T14:30:37Z</time>
      </trkpt>
      <trkpt lat="48.40838" lon="2.58594">
        <ele>98</ele>
        <time>2012-02-08T14:30:49Z</time>
      </trkpt>
      <trkpt lat="48.40814" lon="2.58617">
        <ele>99</ele>
        <time>2012-02-08T14:31:00Z</time>
      </trkpt>
      <trkpt lat="48.40803" lon="2.58638">
        <ele>100</ele>
        <time>2012-02-08T14:31:06Z</time>
      </trkpt>
      <trkpt lat="48.40769" lon="2.58665">
        <ele>100</ele>
        <time>2012-02-08T14:31:20Z</time>
      </trkpt>
      <trkpt lat="48.40763" lon="2.58673">
        <ele>103</ele>
        <time>2012-02-08T14:31:23Z</time>
      </trkpt>
      <trkpt lat="48.40758" lon="2.58694">
        <ele>105</ele>
        <time>2012-02-08T14:31:28Z</time>
      </trkpt>
      <trkpt lat="48.40751" lon="2.58702">
        <ele>105</ele>
        <time>2012-02-08T14:31:32Z</time>
      </trkpt>
      <trkpt lat="48.40737" lon="2.58717">
        <ele>101</ele>
        <time>2012-02-08T14:31:39Z</time>
      </trkpt>
      <trkpt lat="48.4073" lon="2.5877">
        <ele>108</ele>
        <time>2012-02-08T14:31:50Z</time>
      </trkpt>
      <trkpt lat="48.40734" lon="2.58782">
        <ele>109</ele>
        <time>2012-02-08T14:31:54Z</time>
      </trkpt>
      <trkpt lat="48.40754" lon="2.58792">
        <ele>112</ele>
        <time>2012-02-08T14:32:05Z</time>
      </trkpt>
      <trkpt lat="48.40756" lon="2.58803">
        <ele>113</ele>
        <time>2012-02-08T14:32:15Z</time>
      </trkpt>
      <trkpt lat="48.40738" lon="2.58818">
        <ele>113</ele>
        <time>2012-02-08T14:32:28Z</time>
      </trkpt>
      <trkpt lat="48.40713" lon="2.58831">
        <ele>111</ele>
        <time>2012-02-08T14:32:42Z</time>
      </trkpt>
      <trkpt lat="48.40707" lon="2.58839">
        <ele>117</ele>
        <time>2012-02-08T14:32:46Z</time>
      </trkpt>
      <trkpt lat="48.40706" lon="2.5885">
        <ele>117</ele>
        <time>2012-02-08T14:32:50Z</time>
      </trkpt>
      <trkpt lat="48.40707" lon="2.58867">
        <ele>118</ele>
        <time>2012-02-08T14:32:55Z</time>
      </trkpt>
      <trkpt lat="48.40709" lon="2.5888">
        <ele>118</ele>
        <time>2012-02-08T14:33:00Z</time>
      </trkpt>
      <trkpt lat="48.4071" lon="2.58921">
        <ele>122</ele>
        <time>2012-02-08T14:33:17Z</time>
      </trkpt>
      <trkpt lat="48.40714" lon="2.5893">
        <ele>122</ele>
        <time>2012-02-08T14:33:21Z</time>
      </trkpt>
      <trkpt lat="48.40724" lon="2.58967">
        <ele>122</ele>
        <time>2012-02-08T14:33:36Z</time>
      </trkpt>
      <trkpt lat="48.40728" lon="2.58973">
        <ele>122</ele>
        <time>2012-02-08T14:33:39Z</time>
      </trkpt>
      <trkpt lat="48.40738" lon="2.59006">
        <ele>122</ele>
        <time>2012-02-08T14:33:46Z</time>
      </trkpt>
      <trkpt lat="48.40738" lon="2.59017">
        <ele>122</ele>
        <time>2012-02-08T14:33:48Z</time>
      </trkpt>
      <trkpt lat="48.40747" lon="2.5904">
        <ele>121</ele>
        <time>2012-02-08T14:33:53Z</time>
      </trkpt>
      <trkpt lat="48.40756" lon="2.59078">
        <ele>119</ele>
        <time>2012-02-08T14:33:59Z</time>
      </trkpt>
      <trkpt lat="48.40756" lon="2.59097">
        <ele>118</ele>
        <time>2012-02-08T14:34:02Z</time>
      </trkpt>
      <trkpt lat="48.40749" lon="2.59117">
        <ele>120</ele>
        <time>2012-02-08T14:34:13Z</time>
      </trkpt>
      <trkpt lat="48.40742" lon="2.59115">
        <ele>120</ele>
        <time>2012-02-08T14:34:18Z</time>
      </trkpt>
      <trkpt lat="48.40737" lon="2.59117">
        <ele>120</ele>
        <time>2012-02-08T14:34:23Z</time>
      </trkpt>
      <trkpt lat="48.40732" lon="2.5913">
        <ele>120</ele>
        <time>2012-02-08T14:34:30Z</time>
      </trkpt>
      <trkpt lat="48.40731" lon="2.59137">
        <ele>120</ele>
        <time>2012-02-08T14:34:34Z</time>
      </trkpt>
      <trkpt lat="48.40729" lon="2.5914">
        <ele>120</ele>
        <time>2012-02-08T14:34:36Z</time>
      </trkpt>
      <trkpt lat="48.40721" lon="2.59143">
        <ele>120</ele>
        <time>2012-02-08T14:34:49Z</time>
      </trkpt>
      <trkpt lat="48.40715" lon="2.59149">
        <ele>120</ele>
        <time>2012-02-08T14:35:01Z</time>
      </trkpt>
      <trkpt lat="48.40711" lon="2.59155">
        <ele>120</ele>
        <time>2012-02-08T14:35:08Z</time>
      </trkpt>
      <trkpt lat="48.40708" lon="2.59157">
        <ele>121</ele>
        <time>2012-02-08T14:35:12Z</time>
      </trkpt>
      <trkpt lat="48.40703" lon="2.59166">
        <ele>121</ele>
        <time>2012-02-08T14:35:16Z</time>
      </trkpt>
      <trkpt lat="48.40691" lon="2.59178">
        <ele>120</ele>
        <time>2012-02-08T14:35:22Z</time>
      </trkpt>
      <trkpt lat="48.40667" lon="2.59191">
        <ele>120</ele>
        <time>2012-02-08T14:35:34Z</time>
      </trkpt>
      <trkpt lat="48.40661" lon="2.59203">
        <ele>120</ele>
        <time>2012-02-08T14:35:39Z</time>
      </trkpt>
      <trkpt lat="48.40652" lon="2.59202">
        <ele>120</ele>
        <time>2012-02-08T14:35:44Z</time>
      </trkpt>
      <trkpt lat="48.40646" lon="2.59211">
        <ele>120</ele>
        <time>2012-02-08T14:35:50Z</time>
      </trkpt>
      <trkpt lat="48.4064" lon="2.59219">
        <ele>120</ele>
        <time>2012-02-08T14:36:03Z</time>
      </trkpt>
      <trkpt lat="48.40641" lon="2.5922">
        <ele>120</ele>
        <time>2012-02-08T14:36:07Z</time>
      </trkpt>
      <trkpt lat="48.4064" lon="2.59227">
        <ele>120</ele>
        <time>2012-02-08T14:36:11Z</time>
      </trkpt>
      <trkpt lat="48.40642" lon="2.59235">
        <ele>120</ele>
        <time>2012-02-08T14:36:15Z</time>
      </trkpt>
      <trkpt lat="48.40643" lon="2.5927">
        <ele>122</ele>
        <time>2012-02-08T14:36:29Z</time>
      </trkpt>
      <trkpt lat="48.40639" lon="2.59303">
        <ele>122</ele>
        <time>2012-02-08T14:36:41Z</time>
      </trkpt>
    </trkseg>
  </trk>
</gpx>